createdAt,value
2019-03-16T00:01:13.902Z,7.50
2019-03-16T00:03:45.496Z,7.50
2019-03-16T00:06:14.920Z,7.50
2019-03-16T00:08:44.284Z,7.50
2019-03-16T00:11:14.431Z,7.60
2019-03-16T00:13:44.527Z,7.60
2019-03-16T00:16:14.666Z,7.60
2019-03-16T00:18:44.762Z,7.70
2019-03-16T00:21:15.013Z,7.60
2019-03-16T00:23:45.101Z,7.60
2019-03-16T00:26:15.250Z,7.70
2019-03-16T00:28:45.323Z,7.70
2019-03-16T00:31:15.484Z,7.70
2019-03-16T00:33:45.565Z,7.60
2019-03-16T00:36:15.802Z,7.60
2019-03-16T00:38:45.904Z,7.60
2019-03-16T00:41:16.048Z,7.70
2019-03-16T00:43:46.193Z,7.70
2019-03-16T00:46:16.278Z,7.80
2019-03-16T00:48:46.366Z,7.80
2019-03-16T00:51:16.613Z,7.80
2019-03-16T00:53:46.686Z,7.80
2019-03-16T00:56:16.910Z,7.80
2019-03-16T00:58:46.999Z,7.70
2019-03-16T01:01:17.079Z,7.70
2019-03-16T01:03:47.285Z,7.70
2019-03-16T01:06:17.367Z,7.60
2019-03-16T01:08:47.492Z,7.60
2019-03-16T01:11:17.721Z,7.50
2019-03-16T01:13:47.079Z,7.40
2019-03-16T01:16:16.499Z,7.40
2019-03-16T01:18:45.957Z,7.30
2019-03-16T01:21:15.458Z,7.40
2019-03-16T01:23:44.893Z,7.40
2019-03-16T01:26:16.925Z,7.40
2019-03-16T01:28:46.375Z,7.40
2019-03-16T01:31:15.871Z,7.40
2019-03-16T01:33:45.249Z,7.50
2019-03-16T01:36:14.683Z,7.50
2019-03-16T01:38:47.050Z,7.60
2019-03-16T01:41:16.482Z,7.70
2019-03-16T01:43:46.999Z,7.70
2019-03-16T01:46:16.425Z,7.70
2019-03-16T01:48:45.932Z,7.60
2019-03-16T01:51:15.363Z,7.60
2019-03-16T01:53:44.793Z,7.60
2019-03-16T01:56:14.231Z,7.70
2019-03-16T01:58:43.735Z,7.60
2019-03-16T02:01:13.160Z,7.50
2019-03-16T02:03:42.627Z,7.60
2019-03-16T02:06:12.059Z,7.70
2019-03-16T02:08:43.146Z,7.70
2019-03-16T02:11:13.586Z,7.70
2019-03-16T02:13:43.039Z,7.70
2019-03-16T02:16:12.623Z,7.80
2019-03-16T02:18:42.061Z,7.80
2019-03-16T02:21:11.497Z,7.90
2019-03-16T02:23:40.994Z,7.90
2019-03-16T02:26:10.419Z,7.90
2019-03-16T02:28:39.847Z,7.80
2019-03-16T02:31:09.350Z,7.90
2019-03-16T02:33:39.754Z,7.80
2019-03-16T02:36:09.262Z,7.80
2019-03-16T02:38:38.763Z,7.80
2019-03-16T02:41:08.258Z,7.80
2019-03-16T02:43:37.733Z,7.80
2019-03-16T02:46:07.247Z,7.80
2019-03-16T02:48:36.691Z,7.80
2019-03-16T02:51:06.126Z,7.80
2019-03-16T02:53:35.584Z,7.90
2019-03-16T02:56:05.076Z,7.80
2019-03-16T02:58:34.540Z,7.90
2019-03-16T03:01:04.122Z,7.90
2019-03-16T03:03:33.623Z,7.90
2019-03-16T03:06:03.107Z,7.90
2019-03-16T03:08:32.541Z,7.80
2019-03-16T03:11:01.987Z,7.80
2019-03-16T03:13:31.431Z,7.70
2019-03-16T03:16:00.862Z,7.70
2019-03-16T03:18:30.237Z,7.70
2019-03-16T03:20:59.678Z,7.60
2019-03-16T03:23:29.129Z,7.60
2019-03-16T03:26:00.204Z,7.50
2019-03-16T03:28:29.709Z,7.50
2019-03-16T03:30:59.211Z,7.60
2019-03-16T03:33:56.184Z,7.50
2019-03-16T03:35:59.693Z,7.50
2019-03-16T03:38:29.221Z,7.50
2019-03-16T03:41:01.634Z,7.50
2019-03-16T03:43:29.954Z,7.50
2019-03-16T03:45:59.401Z,7.50
2019-03-16T03:48:30.452Z,7.60
2019-03-16T03:50:59.885Z,7.60
2019-03-16T03:53:29.306Z,7.70
2019-03-16T03:55:58.838Z,7.70
2019-03-16T03:58:28.266Z,7.70
2019-03-16T04:00:57.846Z,7.80
2019-03-16T04:03:27.716Z,7.80
2019-03-16T04:05:57.914Z,7.90
2019-03-16T04:08:28.116Z,7.90
2019-03-16T04:10:57.568Z,7.90
2019-03-16T04:13:26.999Z,7.80
2019-03-16T04:15:56.471Z,7.90
2019-03-16T04:18:25.906Z,7.80
2019-03-16T04:20:55.348Z,7.80
2019-03-16T04:23:24.789Z,7.70
2019-03-16T04:25:54.235Z,7.70
2019-03-16T04:28:23.657Z,7.70
2019-03-16T04:30:53.099Z,7.60
2019-03-16T04:33:22.470Z,7.60
2019-03-16T04:35:51.930Z,7.50
2019-03-16T04:38:21.352Z,7.50
2019-03-16T04:40:50.788Z,7.50
2019-03-16T04:43:20.233Z,7.50
2019-03-16T04:45:50.358Z,7.50
2019-03-16T04:48:21.740Z,7.40
2019-03-16T04:50:50.846Z,7.40
2019-03-16T04:53:20.282Z,7.40
2019-03-16T04:55:49.732Z,7.40
2019-03-16T04:58:19.174Z,7.40
2019-03-16T05:00:48.622Z,7.40
2019-03-16T05:03:19.140Z,7.40
2019-03-16T05:05:48.600Z,7.40
2019-03-16T05:08:18.081Z,7.40
2019-03-16T05:10:47.478Z,7.50
2019-03-16T05:13:18.532Z,7.50
2019-03-16T05:15:50.699Z,7.50
2019-03-16T05:18:19.014Z,7.50
2019-03-16T05:20:48.468Z,7.50
2019-03-16T05:23:17.948Z,7.60
2019-03-16T05:25:47.324Z,7.60
2019-03-16T05:28:16.688Z,7.60
2019-03-16T05:30:46.202Z,7.60
2019-03-16T05:33:15.640Z,7.50
2019-03-16T05:35:45.098Z,7.50
2019-03-16T05:38:14.529Z,7.50
2019-03-16T05:40:43.971Z,7.40
2019-03-16T05:43:13.402Z,7.40
2019-03-16T05:45:42.855Z,7.30
2019-03-16T05:48:12.297Z,7.20
2019-03-16T05:50:41.749Z,7.20
2019-03-16T05:53:11.182Z,7.20
2019-03-16T05:55:40.623Z,7.20
2019-03-16T05:58:10.059Z,7.20
2019-03-16T06:00:39.576Z,7.20
2019-03-16T06:03:08.992Z,7.20
2019-03-16T06:05:38.430Z,7.20
2019-03-16T06:08:07.871Z,7.20
2019-03-16T06:10:37.779Z,7.30
2019-03-16T06:13:07.271Z,7.40
2019-03-16T06:15:36.712Z,7.40
2019-03-16T06:18:06.268Z,7.50
2019-03-16T06:20:36.190Z,7.50
2019-03-16T06:23:06.385Z,7.50
2019-03-16T06:25:36.612Z,7.50
2019-03-16T06:28:06.631Z,7.50
2019-03-16T06:30:36.751Z,7.50
2019-03-16T06:33:06.958Z,7.50
2019-03-16T06:35:37.096Z,7.50
2019-03-16T06:38:07.203Z,7.50
2019-03-16T06:40:37.339Z,7.50
2019-03-16T06:43:07.453Z,7.60
2019-03-16T06:45:37.624Z,7.70
2019-03-16T06:48:07.746Z,7.90
2019-03-16T06:50:37.917Z,8.20
2019-03-16T06:53:08.211Z,8.50
2019-03-16T06:55:38.362Z,8.60
2019-03-16T06:58:08.337Z,8.70
2019-03-16T07:00:38.466Z,8.90
2019-03-16T07:03:08.863Z,9.00
2019-03-16T07:05:39.079Z,9.00
2019-03-16T07:08:09.113Z,9.00
2019-03-16T07:10:39.322Z,8.90
2019-03-16T07:13:09.345Z,8.90
2019-03-16T07:15:39.586Z,8.80
2019-03-16T07:18:09.696Z,8.70
2019-03-16T07:20:39.819Z,8.80
2019-03-16T07:23:09.936Z,8.80
2019-03-16T07:25:40.157Z,8.90
2019-03-16T07:28:10.263Z,8.80
2019-03-16T07:30:40.394Z,8.80
2019-03-16T07:33:10.596Z,8.80
2019-03-16T07:35:40.733Z,8.90
2019-03-16T07:38:11.117Z,9.00
2019-03-16T07:40:40.907Z,9.10
2019-03-16T07:43:11.033Z,9.10
2019-03-16T07:45:41.163Z,9.10
2019-03-16T07:48:11.326Z,9.20
2019-03-16T07:50:41.535Z,9.20
2019-03-16T07:53:11.635Z,9.10
2019-03-16T07:55:42.412Z,9.10
2019-03-16T07:58:12.975Z,9.20
2019-03-16T08:00:42.592Z,9.30
2019-03-16T08:03:12.192Z,9.40
2019-03-16T08:05:42.450Z,9.60
2019-03-16T08:08:12.438Z,9.50
2019-03-16T08:10:42.570Z,9.60
2019-03-16T08:13:12.653Z,9.60
2019-03-16T08:15:42.813Z,9.80
2019-03-16T08:18:12.931Z,9.70
2019-03-16T08:20:43.023Z,9.80
2019-03-16T08:23:13.229Z,9.90
2019-03-16T08:25:43.354Z,9.90
2019-03-16T08:28:13.465Z,10.00
2019-03-16T08:30:43.612Z,10.00
2019-03-16T08:33:13.713Z,10.20
2019-03-16T08:35:43.895Z,10.20
2019-03-16T08:38:13.878Z,10.10
2019-03-16T08:40:44.092Z,10.20
2019-03-16T08:43:15.450Z,10.30
2019-03-16T08:45:44.987Z,10.30
2019-03-16T08:48:22.648Z,10.40
2019-03-16T08:50:45.721Z,10.50
2019-03-16T08:53:15.166Z,10.40
2019-03-16T08:55:45.041Z,10.30
2019-03-16T08:58:15.082Z,10.30
2019-03-16T09:00:45.312Z,10.30
2019-03-16T09:03:15.421Z,10.30
2019-03-16T09:05:45.517Z,10.30
2019-03-16T09:08:15.801Z,10.30
2019-03-16T09:10:45.969Z,10.30
2019-03-16T09:13:16.002Z,10.30
2019-03-16T09:15:46.201Z,10.30
2019-03-16T09:18:16.333Z,10.40
2019-03-16T09:20:46.444Z,10.40
2019-03-16T09:23:16.573Z,10.40
2019-03-16T09:25:46.721Z,10.30
2019-03-16T09:28:18.968Z,10.20
2019-03-16T09:30:48.037Z,10.10
2019-03-16T09:33:17.614Z,9.90
2019-03-16T09:35:47.129Z,9.80
2019-03-16T09:38:17.318Z,9.60
2019-03-16T09:40:47.476Z,9.60
2019-03-16T09:43:17.604Z,9.50
2019-03-16T09:45:47.864Z,9.60
2019-03-16T09:48:18.492Z,9.70
2019-03-16T09:50:48.036Z,9.50
2019-03-16T09:53:18.169Z,9.50
2019-03-16T09:55:48.254Z,9.40
2019-03-16T09:58:30.408Z,9.50
2019-03-16T10:00:49.515Z,9.50
2019-03-16T10:03:18.964Z,9.50
2019-03-16T10:05:49.461Z,9.50
2019-03-16T10:08:19.259Z,9.50
2019-03-16T10:10:49.183Z,9.60
2019-03-16T10:13:19.312Z,9.60
2019-03-16T10:15:49.410Z,9.70
2019-03-16T10:18:19.519Z,9.80
2019-03-16T10:20:49.760Z,9.80
2019-03-16T10:23:19.788Z,9.90
2019-03-16T10:25:49.956Z,9.90
2019-03-16T10:28:20.431Z,10.00
2019-03-16T10:30:50.419Z,10.10
2019-03-16T10:33:20.437Z,10.20
2019-03-16T10:35:50.567Z,10.40
2019-03-16T10:38:20.686Z,10.40
2019-03-16T10:40:50.809Z,10.50
2019-03-16T10:43:20.934Z,10.60
2019-03-16T10:45:51.062Z,10.80
2019-03-16T10:48:21.245Z,10.90
2019-03-16T10:50:52.354Z,10.90
2019-03-16T10:53:21.790Z,11.00
2019-03-16T10:55:51.606Z,10.90
2019-03-16T10:58:21.723Z,11.10
2019-03-16T11:00:51.852Z,11.00
2019-03-16T11:03:21.994Z,10.90
2019-03-16T11:05:52.112Z,10.90
2019-03-16T11:08:22.300Z,10.80
2019-03-16T11:10:52.395Z,10.80
2019-03-16T11:13:22.620Z,10.70
2019-03-16T11:15:52.798Z,10.60
2019-03-16T11:18:22.848Z,10.50
2019-03-16T11:20:52.957Z,10.60
2019-03-16T11:23:23.202Z,10.50
2019-03-16T11:25:53.231Z,10.40
2019-03-16T11:28:23.434Z,10.10
2019-03-16T11:30:53.538Z,10.00
2019-03-16T11:33:23.660Z,9.80
2019-03-16T11:35:54.166Z,9.70
2019-03-16T11:38:23.900Z,9.60
2019-03-16T11:40:53.990Z,9.60
2019-03-16T11:43:24.263Z,9.60
2019-03-16T11:45:54.398Z,9.60
2019-03-16T11:48:24.466Z,9.50
2019-03-16T11:50:54.570Z,9.60
2019-03-16T11:53:24.710Z,9.60
2019-03-16T11:55:54.915Z,9.60
2019-03-16T11:58:25.112Z,9.60
2019-03-16T12:00:55.150Z,9.60
2019-03-16T12:03:25.283Z,9.50
2019-03-16T12:05:57.495Z,9.40
2019-03-16T12:08:26.945Z,9.20
2019-03-16T12:10:56.448Z,9.20
2019-03-16T12:13:28.187Z,9.10
2019-03-16T12:15:57.624Z,9.20
2019-03-16T12:18:27.076Z,9.20
2019-03-16T12:20:56.526Z,9.20
2019-03-16T12:23:26.384Z,9.10
2019-03-16T12:25:57.456Z,9.20
2019-03-16T12:28:26.886Z,9.10
2019-03-16T12:30:57.434Z,9.10
2019-03-16T12:33:27.030Z,9.00
2019-03-16T12:35:58.089Z,9.00
2019-03-16T12:38:27.512Z,9.00
2019-03-16T12:40:57.315Z,8.90
2019-03-16T12:43:31.830Z,8.80
2019-03-16T12:46:01.273Z,8.80
2019-03-16T12:48:33.323Z,8.70
2019-03-16T12:51:02.806Z,8.70
2019-03-16T12:53:32.240Z,8.80
2019-03-16T12:56:01.749Z,8.70
2019-03-16T12:58:31.175Z,8.60
2019-03-16T13:01:02.542Z,8.60
2019-03-16T13:03:32.043Z,8.50
2019-03-16T13:06:02.675Z,8.40
2019-03-16T13:08:32.097Z,8.40
2019-03-16T13:11:01.613Z,8.20
2019-03-16T13:13:31.031Z,8.20
2019-03-16T13:16:00.481Z,8.30
2019-03-16T13:18:29.905Z,8.20
2019-03-16T13:20:59.696Z,8.10
2019-03-16T13:23:29.807Z,8.00
2019-03-16T13:25:59.993Z,8.10
2019-03-16T13:28:30.055Z,8.10
2019-03-16T13:31:00.234Z,7.90
2019-03-16T13:33:30.399Z,7.80
2019-03-16T13:36:01.078Z,7.90
2019-03-16T13:38:30.677Z,8.00
2019-03-16T13:41:00.749Z,7.90
2019-03-16T13:43:30.890Z,7.90
2019-03-16T13:46:01.143Z,7.90
2019-03-16T13:48:32.792Z,8.00
2019-03-16T13:51:02.570Z,8.00
2019-03-16T13:53:32.790Z,8.10
2019-03-16T13:56:02.674Z,8.10
2019-03-16T13:58:33.667Z,8.20
2019-03-16T14:01:03.146Z,8.20
2019-03-16T14:03:34.213Z,8.20
2019-03-16T14:06:04.015Z,8.20
2019-03-16T14:08:33.527Z,8.10
2019-03-16T14:11:04.637Z,8.20
2019-03-16T14:13:34.391Z,8.20
2019-03-16T14:16:03.907Z,8.30
2019-03-16T14:18:33.342Z,8.10
2019-03-16T14:21:03.119Z,8.00
2019-03-16T14:23:33.567Z,8.10
2019-03-16T14:26:03.550Z,8.20
2019-03-16T14:28:33.560Z,8.30
2019-03-16T14:31:04.370Z,8.40
2019-03-16T14:33:33.831Z,8.20
2019-03-16T14:36:04.567Z,8.20
2019-03-16T14:38:35.293Z,8.30
2019-03-16T14:41:04.853Z,8.40
2019-03-16T14:43:36.064Z,8.50
2019-03-16T14:46:05.572Z,8.50
2019-03-16T14:48:35.025Z,8.50
2019-03-16T14:51:07.097Z,8.60
2019-03-16T14:53:36.576Z,8.70
2019-03-16T14:56:06.109Z,8.70
2019-03-16T14:58:35.560Z,8.70
2019-03-16T15:01:05.554Z,8.80
2019-03-16T15:03:35.521Z,8.80
2019-03-16T15:06:05.780Z,8.80
2019-03-16T15:08:35.767Z,8.80
2019-03-16T15:11:09.156Z,8.90
2019-03-16T15:13:39.688Z,9.00
2019-03-16T15:16:09.509Z,9.00
2019-03-16T15:18:38.971Z,9.00
2019-03-16T15:21:08.438Z,9.10
2019-03-16T15:23:37.884Z,9.10
2019-03-16T15:26:07.333Z,9.10
2019-03-16T15:28:36.908Z,9.20
2019-03-16T15:31:07.157Z,9.30
2019-03-16T15:33:37.228Z,9.40
2019-03-16T15:36:07.411Z,9.40
2019-03-16T15:38:37.474Z,9.50
2019-03-16T15:41:07.577Z,9.60
2019-03-16T15:43:37.790Z,9.60
2019-03-16T15:46:09.286Z,9.70
2019-03-16T15:48:38.738Z,9.70
2019-03-16T15:51:08.319Z,9.80
2019-03-16T15:53:38.268Z,9.80
2019-03-16T15:56:08.436Z,9.80
2019-03-16T15:58:38.505Z,9.80
2019-03-16T16:01:08.665Z,9.90
2019-03-16T16:03:38.742Z,10.00
2019-03-16T16:06:09.082Z,10.00
2019-03-16T16:08:39.147Z,10.10
2019-03-16T16:11:09.175Z,10.20
2019-03-16T16:13:39.306Z,10.20
2019-03-16T16:16:10.620Z,10.20
2019-03-16T16:18:41.123Z,10.20
2019-03-16T16:21:10.650Z,10.20
2019-03-16T16:23:40.103Z,10.20
2019-03-16T16:26:09.962Z,10.30
2019-03-16T16:28:40.283Z,10.30
2019-03-16T16:31:16.302Z,10.30
2019-03-16T16:33:41.386Z,10.30
2019-03-16T16:36:10.894Z,10.30
2019-03-16T16:38:41.491Z,10.30
2019-03-16T16:41:11.009Z,10.30
2019-03-16T16:43:41.082Z,10.30
2019-03-16T16:46:11.266Z,10.30
2019-03-16T16:48:41.328Z,10.30
2019-03-16T16:51:12.188Z,10.20
2019-03-16T16:53:41.659Z,10.20
2019-03-16T16:56:11.685Z,10.20
2019-03-16T16:58:41.850Z,10.20
2019-03-16T17:01:12.021Z,10.20
2019-03-16T17:03:42.094Z,10.30
2019-03-16T17:06:12.577Z,10.30
2019-03-16T17:08:44.027Z,10.30
2019-03-16T17:11:13.485Z,10.30
2019-03-16T17:13:43.792Z,10.30
2019-03-16T17:16:13.298Z,10.30
2019-03-16T17:18:44.027Z,10.30
2019-03-16T17:21:13.552Z,10.30
2019-03-16T17:23:43.094Z,10.30
2019-03-16T17:26:16.162Z,10.30
2019-03-16T17:28:45.612Z,10.30
2019-03-16T17:31:15.084Z,10.40
2019-03-16T17:33:44.596Z,10.40
2019-03-16T17:36:14.135Z,10.30
2019-03-16T17:38:43.975Z,10.40
2019-03-16T17:41:14.117Z,10.40
2019-03-16T17:43:44.292Z,10.40
2019-03-16T17:46:15.404Z,10.40
2019-03-16T17:48:48.765Z,10.40
2019-03-16T17:51:18.325Z,10.30
2019-03-16T17:53:47.880Z,10.30
2019-03-16T17:56:18.446Z,10.40
2019-03-16T17:58:47.934Z,10.30
2019-03-16T18:01:20.596Z,10.30
2019-03-16T18:03:50.131Z,10.30
2019-03-16T18:06:19.764Z,10.30
2019-03-16T18:08:49.611Z,10.30
2019-03-16T18:11:19.736Z,10.40
2019-03-16T18:13:49.756Z,10.40
2019-03-16T18:16:21.353Z,10.40
2019-03-16T18:18:50.894Z,10.40
2019-03-16T18:21:20.351Z,10.40
2019-03-16T18:23:50.360Z,10.40
2019-03-16T18:26:20.195Z,10.40
2019-03-16T18:28:50.435Z,10.40
2019-03-16T18:31:20.541Z,10.40
2019-03-16T18:33:52.160Z,10.40
2019-03-16T18:36:24.155Z,10.50
2019-03-16T18:38:54.899Z,10.50
2019-03-16T18:41:24.352Z,10.50
2019-03-16T18:43:54.543Z,10.50
2019-03-16T18:46:26.026Z,10.50
2019-03-16T18:48:55.518Z,10.50
2019-03-16T18:51:25.293Z,10.50
2019-03-16T18:53:54.732Z,10.50
2019-03-16T18:56:24.305Z,10.50
2019-03-16T18:58:54.852Z,10.50
2019-03-16T19:01:24.986Z,10.60
2019-03-16T19:03:54.449Z,10.60
2019-03-16T19:06:24.014Z,10.50
2019-03-16T19:08:54.220Z,10.60
2019-03-16T19:11:24.353Z,10.60
2019-03-16T19:13:54.957Z,10.60
2019-03-16T19:16:24.665Z,10.60
2019-03-16T19:18:54.679Z,10.60
2019-03-16T19:21:25.166Z,10.60
2019-03-16T19:23:55.106Z,10.70
2019-03-16T19:26:25.193Z,10.70
2019-03-16T19:28:55.634Z,10.70
2019-03-16T19:31:25.396Z,10.80
2019-03-16T19:33:56.531Z,10.80
2019-03-16T19:36:26.406Z,10.80
2019-03-16T19:38:55.839Z,10.80
2019-03-16T19:41:26.018Z,10.80
2019-03-16T19:43:56.061Z,10.80
2019-03-16T19:46:26.113Z,10.90
2019-03-16T19:48:56.231Z,10.90
2019-03-16T19:51:28.496Z,10.80
2019-03-16T19:53:57.925Z,10.90
2019-03-16T19:56:27.462Z,10.90
2019-03-16T19:59:00.840Z,10.90
2019-03-16T20:01:28.921Z,10.80
2019-03-16T20:03:59.113Z,10.80
2019-03-16T20:06:28.572Z,10.80
2019-03-16T20:08:58.112Z,10.80
2019-03-16T20:11:27.690Z,10.90
2019-03-16T20:13:57.921Z,10.90
2019-03-16T20:16:27.868Z,10.90
2019-03-16T20:18:57.970Z,10.90
2019-03-16T20:21:28.127Z,10.90
2019-03-16T20:23:58.462Z,10.90
2019-03-16T20:26:27.937Z,10.90
2019-03-16T20:28:58.691Z,10.90
2019-03-16T20:31:29.113Z,10.90
2019-03-16T20:34:01.506Z,10.90
2019-03-16T20:36:31.067Z,10.90
2019-03-16T20:39:00.524Z,10.90
2019-03-16T20:41:36.453Z,10.90
2019-03-16T20:44:04.750Z,10.90
2019-03-16T20:46:34.235Z,10.90
2019-03-16T20:49:04.795Z,10.90
2019-03-16T20:51:34.358Z,10.90
2019-03-16T20:54:03.872Z,10.90
2019-03-16T20:56:35.008Z,10.90
2019-03-16T20:59:04.587Z,10.90
2019-03-16T21:01:34.226Z,10.80
2019-03-16T21:04:03.885Z,10.90
2019-03-16T21:06:33.421Z,10.90
2019-03-16T21:09:03.663Z,10.90
2019-03-16T21:11:33.264Z,11.00
2019-03-16T21:14:02.793Z,11.00
2019-03-16T21:16:32.240Z,10.90
2019-03-16T21:19:01.692Z,10.90
2019-03-16T21:21:35.747Z,10.90
2019-03-16T21:24:07.421Z,10.90
2019-03-16T21:26:36.352Z,10.90
2019-03-16T21:29:05.963Z,10.90
2019-03-16T21:31:35.536Z,10.90
2019-03-16T21:34:05.807Z,10.90
2019-03-16T21:36:41.456Z,10.90
2019-03-16T21:39:08.073Z,10.90
2019-03-16T21:41:39.196Z,10.90
2019-03-16T21:44:08.932Z,11.00
2019-03-16T21:46:38.370Z,11.00
2019-03-16T21:49:07.836Z,11.00
2019-03-16T21:51:37.416Z,11.00
2019-03-16T21:54:06.789Z,11.00
2019-03-16T21:56:36.343Z,11.00
2019-03-16T21:59:05.787Z,11.00
2019-03-16T22:01:37.957Z,11.10
2019-03-16T22:04:09.475Z,11.00
2019-03-16T22:06:38.908Z,11.00
2019-03-16T22:09:08.375Z,11.10
2019-03-16T22:11:37.970Z,11.10
2019-03-16T22:14:07.509Z,11.10
2019-03-16T22:16:37.527Z,11.10
2019-03-16T22:19:06.981Z,11.10
2019-03-16T22:21:36.435Z,11.10
2019-03-16T22:24:06.022Z,11.20
2019-03-16T22:26:35.495Z,11.20
2019-03-16T22:29:05.019Z,11.20
2019-03-16T22:31:36.732Z,11.20
2019-03-16T22:34:06.317Z,11.20
2019-03-16T22:36:35.770Z,11.20
2019-03-16T22:39:07.009Z,11.20
2019-03-16T22:41:36.523Z,11.20
2019-03-16T22:44:06.079Z,11.20
2019-03-16T22:46:35.693Z,11.20
2019-03-16T22:49:06.592Z,11.20
2019-03-16T22:51:37.512Z,11.20
2019-03-16T22:54:07.065Z,11.20
2019-03-16T22:56:36.505Z,11.30
2019-03-16T22:59:06.451Z,11.20
2019-03-16T23:01:36.663Z,11.20
2019-03-16T23:04:07.318Z,11.20
2019-03-16T23:06:37.013Z,11.10
2019-03-16T23:09:07.307Z,11.20
2019-03-16T23:11:36.849Z,11.20
2019-03-16T23:14:07.127Z,11.20
2019-03-16T23:16:37.227Z,11.20
2019-03-16T23:19:07.377Z,11.20
2019-03-16T23:21:37.514Z,11.10
2019-03-16T23:24:07.939Z,11.10
2019-03-16T23:26:38.975Z,11.10
2019-03-16T23:29:09.657Z,11.10
2019-03-16T23:31:40.140Z,11.10
2019-03-16T23:34:19.025Z,11.10
2019-03-16T23:36:41.747Z,11.10
2019-03-16T23:39:11.207Z,11.10
2019-03-16T23:41:40.633Z,11.10
2019-03-16T23:44:10.157Z,11.20
2019-03-16T23:46:41.231Z,11.20
2019-03-16T23:49:10.658Z,11.20
2019-03-16T23:51:40.183Z,11.20
2019-03-16T23:54:09.726Z,11.20
2019-03-16T23:56:39.804Z,11.20
2019-03-16T23:59:10.291Z,11.20
